SVPL1: Red River at Shreveport Site 2

                                SHEF ID:       SVPL1     Red River at Shreveport Site 2
STATION TYPE:

PRECIP STAGE RIV-FLOW VOLTAGE
in ft cfs volt
Ccp-Rev Ccp-Rev Ccp-Rev Ccp-Rev
(America/Chicago)
06/16 00:00 0.00 15.53 20240 12.73
06/16 01:00 0.00 15.45 19600 12.71
06/16 02:00 0.00 15.50 20000 12.72
06/16 03:00 0.00 15.49 19920 12.71
06/16 04:00 0.00 15.47 19760 12.71
06/16 05:00 0.00 15.46 19680 12.70
06/16 06:00 0.00 15.45 19600 12.73
06/16 07:00 0.00 15.37 18960 12.82
06/16 08:00 0.00 15.36 18880 13.03
06/16 09:00 0.00 15.26 18080 13.18
06/16 10:00 0.00 15.33 18640 13.12
06/16 11:00 0.00 15.27 18160 13.55
06/16 12:00 0.00 15.18 17440 13.07
06/16 13:00 0.00 15.23 17840 13.09
06/16 14:00 0.00 15.21 17680 13.05
06/16 15:00 0.00 15.19 17520 13.07
06/16 16:00 0.00 15.08 16640 13.09
06/16 17:00 0.00 15.13 17040 13.08
06/16 18:00 0.00 15.14 17120 12.96
06/16 19:00 0.00 15.13 17040 12.90
06/16 20:00 0.00 15.14 17120 12.88
06/16 21:00 0.00 15.13 17040 12.86
06/16 22:00 0.00 15.09 16720 12.85
06/16 23:00 0.00 15.14 17120 12.84
Data processed at Mon 22Jun2026 03:24 GMT

NOTICE: If you are parsing this page

Please convert to using our Data API. Starting early 2026 we will be migrating to: https://water.usace.army.mil with modern pages rendered in JavaScript. When this migration completes you will no longer be able to scrape this page! CWMSDataAPI (CDA)

Timeseries IDs (TSIDs)

TSIDs used from left to right in the data table
SHRE.Precip-Inc.Total.1Hour.1Hour.Ccp-Rev
SHRE.Stage.Inst.1Hour.0.Ccp-Rev
SHRE.Flow.Inst.1Hour.0.Ccp-Rev
SHRE.Volt-Battery.Inst.1Hour.0.Ccp-Rev

                            

All information presented herein is the property of the government of the United States of America and may be revised or deleted at any time without prior notice. Dissemination of this information without the expressed written consent of the Public Affairs Office, Tulsa District U.S. Army Corps of Engineers is strictly prohibited. These data are gathered electronically and, as presented, have NOT undergone any form of quality control. These data are NOT guaranteed to be valid or correct.